Time;durP1;ratioP1;P1;durP2;ratioP2;P2;SDS_P1;SDS_P2;PMS_P1;PMS_P2;Temp;Humidity;BMP_temperature;BMP_pressure;BME280_temperature;BME280_humidity;BME280_pressure;Samples;Min_cycle;Max_cycle;Signal;HPM_P1;HPM_P2
2022/03/04 00:02:19;;;;;;;36.97;17.95;;;;;;;1.36;85.47;102206.28;5024522;28;20456;-64
2022/03/04 00:04:45;;;;;;;35.60;18.02;;;;;;;1.34;85.29;102208.88;5023271;28;20033;-64
2022/03/04 00:07:11;;;;;;;33.65;18.25;;;;;;;1.32;85.82;102204.50;5022798;28;20227;-64
2022/03/04 00:09:36;;;;;;;35.33;17.88;;;;;;;1.30;85.68;102206.22;5023139;28;20063;-64
2022/03/04 00:12:03;;;;;;;35.50;17.92;;;;;;;1.28;85.39;102213.13;5022794;28;20041;-64
2022/03/04 00:14:30;;;;;;;35.67;17.95;;;;;;;1.27;85.41;102217.47;5023807;28;20072;-64
2022/03/04 00:16:55;;;;;;;37.45;17.90;;;;;;;1.24;85.91;102211.34;5023063;28;20642;-64
2022/03/04 00:19:21;;;;;;;32.03;17.10;;;;;;;1.24;85.98;102211.34;5022328;28;20046;-64
2022/03/04 00:21:49;;;;;;;35.55;17.23;;;;;;;1.20;85.73;102213.88;5022928;28;20078;-64
2022/03/04 00:24:19;;;;;;;32.72;17.83;;;;;;;1.19;85.93;102213.84;5022991;28;20463;-63
2022/03/04 00:26:45;;;;;;;30.95;16.83;;;;;;;1.16;86.00;102211.22;5021296;28;20455;-63
2022/03/04 00:29:11;;;;;;;34.50;17.70;;;;;;;1.15;86.03;102219.88;5022779;28;20032;-63
2022/03/04 00:31:38;;;;;;;32.45;16.98;;;;;;;1.11;86.09;102220.69;5023226;28;20033;-64
2022/03/04 00:34:07;;;;;;;35.28;17.75;;;;;;;1.09;85.88;102223.25;5020831;28;20134;-63
2022/03/04 00:36:36;;;;;;;39.10;17.17;;;;;;;1.07;85.85;102224.97;5022782;28;20071;-64
2022/03/04 00:39:04;;;;;;;31.25;16.10;;;;;;;1.04;86.08;102225.78;5022361;28;20071;-64
2022/03/04 00:41:30;;;;;;;31.27;16.73;;;;;;;1.02;86.33;102221.41;5022161;28;20052;-64
2022/03/04 00:43:56;;;;;;;35.15;16.00;;;;;;;0.98;86.48;102223.09;5023056;28;20034;-64
2022/03/04 00:46:21;;;;;;;31.45;16.38;;;;;;;0.97;86.30;102220.47;5022765;28;20087;-64
2022/03/04 00:48:47;;;;;;;34.90;16.27;;;;;;;0.94;86.43;102219.53;5032693;28;20482;-64
2022/03/04 00:51:13;;;;;;;32.97;16.58;;;;;;;0.93;86.20;102227.38;5023096;28;20025;-64
2022/03/04 00:53:41;;;;;;;31.42;15.75;;;;;;;0.91;86.29;102231.66;5022256;28;21033;-64
2022/03/04 00:56:07;;;;;;;33.97;15.77;;;;;;;0.89;86.22;102231.66;5023480;28;20480;-64
2022/03/04 00:58:33;;;;;;;30.08;16.35;;;;;;;0.88;86.32;102224.66;5021820;28;20114;-64
2022/03/04 01:00:59;;;;;;;31.17;16.30;;;;;;;0.85;86.38;102235.06;5023171;28;20556;-64
2022/03/04 01:03:25;;;;;;;31.05;15.45;;;;;;;0.83;86.52;102231.56;5022339;28;20026;-64
2022/03/04 01:05:51;;;;;;;30.92;15.57;;;;;;;0.81;86.38;102233.22;5022952;28;20041;-64
2022/03/04 01:08:17;;;;;;;28.67;14.70;;;;;;;0.79;86.40;102229.72;5023137;28;20480;-64
2022/03/04 01:10:42;;;;;;;30.27;16.05;;;;;;;0.77;86.68;102228.81;5022165;28;20033;-65
2022/03/04 01:13:08;;;;;;;29.33;14.98;;;;;;;0.76;86.73;102229.69;5020383;28;20096;-63
2022/03/04 01:15:34;;;;;;;27.88;15.40;;;;;;;0.73;86.38;102219.19;5020770;28;20068;-63
2022/03/04 01:17:59;;;;;;;30.05;15.57;;;;;;;0.71;86.67;102216.53;5021869;28;20045;-63
2022/03/04 01:20:24;;;;;;;33.75;14.85;;;;;;;0.69;86.71;102220.84;5020308;28;20037;-63
2022/03/04 01:22:50;;;;;;;26.08;13.93;;;;;;;0.67;86.83;102223.44;5021510;28;20029;-63
2022/03/04 01:25:16;;;;;;;27.25;14.25;;;;;;;0.63;86.87;102216.44;5021886;28;20486;-63
2022/03/04 01:27:41;;;;;;;30.15;14.63;;;;;;;0.62;86.68;102217.28;5021796;28;20454;-63
2022/03/04 01:30:08;;;;;;;27.33;14.18;;;;;;;0.59;86.84;102227.63;5022397;28;20033;-63
2022/03/04 01:32:35;;;;;;;27.15;14.55;;;;;;;0.58;86.97;102225.88;5021558;28;20107;-63
2022/03/04 01:35:00;;;;;;;26.92;14.15;;;;;;;0.57;86.64;102226.72;5017624;28;20507;-63
2022/03/04 01:37:27;;;;;;;24.23;13.50;;;;;;;0.56;86.51;102224.09;5021195;28;20033;-63
2022/03/04 01:39:52;;;;;;;26.02;13.98;;;;;;;0.53;86.97;102225.81;5021700;28;20854;-62
2022/03/04 01:42:18;;;;;;;26.70;13.63;;;;;;;0.52;87.15;102218.84;5021053;28;20076;-63
2022/03/04 01:44:44;;;;;;;27.90;14.05;;;;;;;0.50;87.06;102214.44;5022255;28;20041;-63
2022/03/04 01:47:09;;;;;;;28.08;13.48;;;;;;;0.49;87.28;102231.78;5021066;28;20376;-63
2022/03/04 01:49:35;;;;;;;24.98;13.60;;;;;;;0.48;87.16;102218.75;5021903;28;20041;-63
2022/03/04 01:52:01;;;;;;;24.05;13.10;;;;;;;0.45;86.93;102223.91;5022150;28;20036;-63
2022/03/04 01:54:26;;;;;;;24.60;13.15;;;;;;;0.43;87.02;102228.22;5022386;28;20029;-63
2022/03/04 01:56:52;;;;;;;24.95;12.30;;;;;;;0.42;87.52;102229.94;5021458;28;20641;-64
2022/03/04 01:59:18;;;;;;;24.08;11.45;;;;;;;0.42;87.24;102235.13;5021425;28;20098;-63
2022/03/04 02:01:43;;;;;;;21.95;12.88;;;;;;;0.41;87.28;102217.75;5021317;28;20195;-63
2022/03/04 02:04:09;;;;;;;29.48;13.52;;;;;;;0.39;87.29;102225.53;5023461;28;20430;-63
2022/03/04 02:06:35;;;;;;;26.30;13.52;;;;;;;0.37;87.08;102227.22;5025455;28;20107;-63
2022/03/04 02:09:01;;;;;;;29.38;13.60;;;;;;;0.34;87.11;102221.97;5025915;28;20099;-63
2022/03/04 02:11:26;;;;;;;27.40;13.73;;;;;;;0.32;87.38;102220.19;5025373;28;20034;-63
2022/03/04 02:13:52;;;;;;;27.50;13.77;;;;;;;0.29;87.42;102214.91;5023835;28;20502;-63
2022/03/04 02:16:22;;;;;;;24.50;13.40;;;;;;;0.26;87.44;102223.53;5025541;28;20033;-63
2022/03/04 02:18:48;;;;;;;30.92;13.88;;;;;;;0.23;87.80;102220.88;5007025;28;20123;-63
2022/03/04 02:21:14;;;;;;;29.10;13.43;;;;;;;0.21;87.90;102225.19;5026430;28;20053;-63
2022/03/04 02:23:39;;;;;;;24.30;13.82;;;;;;;0.18;87.67;102220.78;5025222;28;20341;-63
2022/03/04 02:26:05;;;;;;;26.17;13.65;;;;;;;0.18;88.19;102222.50;5024939;28;20045;-63
2022/03/04 02:28:31;;;;;;;26.15;13.90;;;;;;;0.17;87.91;102220.75;5025976;28;20037;-64
2022/03/04 02:30:56;;;;;;;28.25;13.35;;;;;;;0.17;87.75;102223.34;5025506;28;20111;-63
2022/03/04 02:33:22;;;;;;;27.67;13.40;;;;;;;0.16;88.02;102229.44;5025228;28;20041;-64
2022/03/04 02:35:48;;;;;;;24.98;13.18;;;;;;;0.14;87.90;102205.94;5025737;28;20384;-63
2022/03/04 02:38:13;;;;;;;26.77;14.27;;;;;;;0.15;87.99;102212.03;5025098;28;20045;-63
2022/03/04 02:40:39;;;;;;;25.60;13.23;;;;;;;0.11;88.28;102209.34;5021432;28;20063;-63
2022/03/04 02:43:05;;;;;;;24.58;13.25;;;;;;;0.10;88.16;102207.59;5023242;28;20079;-64
2022/03/04 02:45:31;;;;;;;25.25;13.82;;;;;;;0.09;88.60;102210.16;5023989;28;20029;-64
2022/03/04 02:47:56;;;;;;;27.80;14.10;;;;;;;0.07;88.38;102210.16;5025319;28;20065;-64
2022/03/04 02:50:22;;;;;;;24.95;13.68;;;;;;;0.05;88.55;102209.22;5025786;28;21677;-64
2022/03/04 02:52:48;;;;;;;24.75;13.95;;;;;;;0.04;88.41;102209.22;5022158;28;20025;-64
2022/03/04 02:55:14;;;;;;;28.38;13.40;;;;;;;0.02;88.27;102209.19;5024863;28;20032;-64
2022/03/04 02:57:45;;;;;;;27.00;13.23;;;;;;;0.00;88.87;102216.09;5023968;28;20044;-64
2022/03/04 03:00:12;;;;;;;24.35;13.43;;;;;;;-0.01;88.51;102212.59;5010647;28;20061;-64
2022/03/04 03:02:38;;;;;;;25.40;13.02;;;;;;;-0.04;88.91;102198.63;5024698;28;20045;-64
2022/03/04 03:05:04;;;;;;;26.80;12.70;;;;;;;-0.05;88.93;102209.91;5024811;28;20119;-64
2022/03/04 03:07:30;;;;;;;26.52;13.73;;;;;;;-0.08;88.75;102207.22;5023079;28;20803;-64
2022/03/04 03:09:55;;;;;;;27.40;14.23;;;;;;;-0.10;88.92;102204.59;5022737;28;20045;-64
2022/03/04 03:12:21;;;;;;;31.23;13.98;;;;;;;-0.10;88.97;102214.13;5024856;28;20488;-64
2022/03/04 03:14:47;;;;;;;28.60;13.90;;;;;;;-0.11;89.02;102222.78;5024345;28;20121;-64
2022/03/04 03:17:12;;;;;;;33.15;13.90;;;;;;;-0.13;88.99;102222.75;5023650;28;20042;-64
2022/03/04 03:19:38;;;;;;;25.45;13.70;;;;;;;-0.13;89.13;102229.72;5023618;28;20096;-63
2022/03/04 03:22:03;;;;;;;27.67;14.00;;;;;;;-0.14;89.03;102223.59;5023737;28;20370;-63
2022/03/04 03:24:29;;;;;;;27.83;14.32;;;;;;;-0.15;89.30;102222.72;5024177;28;20086;-64
2022/03/04 03:26:54;;;;;;;29.92;15.02;;;;;;;-0.16;89.13;102220.97;5023929;28;20640;-64
2022/03/04 03:29:20;;;;;;;30.58;15.68;;;;;;;-0.16;89.35;102226.16;5023246;28;20124;-64
2022/03/04 03:31:45;;;;;;;28.88;14.55;;;;;;;-0.18;89.14;102225.25;5023570;28;20082;-64
2022/03/04 03:34:11;;;;;;;29.98;14.60;;;;;;;-0.18;89.40;102224.38;5023613;28;20041;-64
2022/03/04 03:36:36;;;;;;;27.80;14.52;;;;;;;-0.20;89.15;102228.69;5023885;28;20033;-64
2022/03/04 03:39:02;;;;;;;26.00;14.30;;;;;;;-0.22;89.63;102228.63;5023697;28;20036;-64
2022/03/04 03:41:28;;;;;;;30.98;15.35;;;;;;;-0.25;89.22;102228.59;5023910;28;21771;-64
2022/03/04 03:43:53;;;;;;;28.45;13.95;;;;;;;-0.26;89.41;102224.22;5023523;28;20037;-64
2022/03/04 03:46:19;;;;;;;29.33;15.10;;;;;;;-0.27;89.71;102222.47;5024132;28;20124;-63
2022/03/04 03:48:45;;;;;;;30.65;15.15;;;;;;;-0.29;89.61;102221.53;5024638;28;20033;-63
2022/03/04 03:51:10;;;;;;;32.65;15.43;;;;;;;-0.30;89.71;102225.00;5021958;28;20033;-63
2022/03/04 03:53:36;;;;;;;32.92;15.68;;;;;;;-0.33;89.62;102214.53;5023537;28;20036;-63
2022/03/04 03:56:03;;;;;;;28.73;14.82;;;;;;;-0.36;89.56;102224.84;5023782;28;20047;-63
2022/03/04 03:58:29;;;;;;;27.20;13.60;;;;;;;-0.38;89.74;102213.53;5023239;28;20436;-63
2022/03/04 04:00:55;;;;;;;28.17;14.90;;;;;;;-0.39;89.66;102217.00;5020768;28;20035;-63
2022/03/04 04:03:20;;;;;;;28.23;14.30;;;;;;;-0.39;89.77;102225.66;5023350;28;20170;-64
2022/03/04 04:05:46;;;;;;;34.28;15.50;;;;;;;-0.42;89.86;102223.00;5023183;28;20132;-63
2022/03/04 04:08:11;;;;;;;30.50;15.48;;;;;;;-0.43;89.75;102224.72;5022628;28;20045;-63
2022/03/04 04:10:37;;;;;;;31.65;14.93;;;;;;;-0.44;89.93;102212.56;5023418;28;20054;-63
2022/03/04 04:13:03;;;;;;;30.55;15.48;;;;;;;-0.45;89.90;102228.13;5021004;28;20037;-64
2022/03/04 04:15:28;;;;;;;29.15;15.23;;;;;;;-0.47;89.85;102224.63;5023125;28;20029;-63
2022/03/04 04:17:54;;;;;;;29.00;14.48;;;;;;;-0.48;89.76;102215.06;5022119;28;20132;-63
2022/03/04 04:20:19;;;;;;;31.80;15.90;;;;;;;-0.49;90.14;102215.91;5023871;28;20057;-63
2022/03/04 04:22:45;;;;;;;32.53;14.77;;;;;;;-0.51;89.94;102218.47;5022357;28;20040;-64
2022/03/04 04:25:10;;;;;;;29.90;14.93;;;;;;;-0.52;89.58;102216.72;5023572;28;20596;-63
2022/03/04 04:27:36;;;;;;;30.08;14.45;;;;;;;-0.53;89.79;102216.66;5021508;28;20025;-63
2022/03/04 04:30:03;;;;;;;32.92;14.75;;;;;;;-0.57;89.94;102202.72;5023698;28;20057;-63
2022/03/04 04:32:29;;;;;;;30.42;15.15;;;;;;;-0.59;90.23;102204.41;5021411;28;20041;-63
2022/03/04 04:34:55;;;;;;;29.05;14.93;;;;;;;-0.61;89.99;102204.38;5023657;28;20045;-63
2022/03/04 04:37:20;;;;;;;30.73;15.30;;;;;;;-0.62;90.25;102201.72;5022186;28;20041;-63
2022/03/04 04:39:47;;;;;;;31.00;15.63;;;;;;;-0.64;90.13;102204.31;5023334;28;20475;-63
2022/03/04 04:42:12;;;;;;;30.15;15.93;;;;;;;-0.66;90.10;102198.16;5023019;28;20033;-63
2022/03/04 04:44:38;;;;;;;29.88;15.70;;;;;;;-0.66;90.46;102202.50;5022320;28;20068;-64
2022/03/04 04:47:04;;;;;;;30.38;15.38;;;;;;;-0.69;90.23;102198.97;5024105;28;20098;-64
2022/03/04 04:49:29;;;;;;;31.50;15.23;;;;;;;-0.72;90.25;102198.91;5021051;28;20487;-64
2022/03/04 04:51:55;;;;;;;32.90;15.95;;;;;;;-0.73;90.21;102197.16;5017996;28;20175;-64
2022/03/04 04:54:20;;;;;;;34.72;16.23;;;;;;;-0.74;90.26;102204.91;5018244;28;21453;-64
2022/03/04 04:56:46;;;;;;;34.22;16.45;;;;;;;-0.76;90.22;102202.28;5019686;28;20159;-64
2022/03/04 04:59:11;;;;;;;35.35;16.58;;;;;;;-0.77;90.40;102208.31;5022552;28;20040;-64
2022/03/04 05:01:37;;;;;;;31.83;15.90;;;;;;;-0.79;90.33;102210.03;5022744;28;20045;-64
2022/03/04 05:04:02;;;;;;;30.77;15.93;;;;;;;-0.79;90.34;102216.94;5022350;28;20503;-63
2022/03/04 05:06:28;;;;;;;32.03;16.35;;;;;;;-0.83;90.25;102210.78;5022637;28;20033;-64
2022/03/04 05:08:53;;;;;;;30.73;16.08;;;;;;;-0.85;90.80;102212.47;5022992;28;20033;-64
2022/03/04 05:11:19;;;;;;;31.83;15.57;;;;;;;-0.85;90.41;102217.66;5020160;28;20180;-64
2022/03/04 05:13:45;;;;;;;31.80;16.30;;;;;;;-0.88;90.33;102213.28;5022588;28;20028;-64
2022/03/04 05:16:10;;;;;;;31.25;15.77;;;;;;;-0.88;90.38;102210.69;5022313;28;20040;-63
2022/03/04 05:18:36;;;;;;;29.25;15.50;;;;;;;-0.88;90.56;102209.81;5022254;28;20033;-63
2022/03/04 05:21:03;;;;;;;36.08;16.75;;;;;;;-0.91;90.24;102213.22;5022745;28;20038;-63
2022/03/04 05:26:12;;;;;;;31.45;16.08;;;;;;;-0.96;90.48;102231.28;5022133;28;20029;-64
2022/03/04 05:28:38;;;;;;;33.53;16.27;;;;;;;-0.99;90.54;102220.81;5021724;28;20657;-64
2022/03/04 05:31:03;;;;;;;35.75;17.00;;;;;;;-1.02;90.42;102225.94;5020389;28;20033;-63
2022/03/04 05:33:29;;;;;;;34.47;16.27;;;;;;;-1.03;90.38;102229.38;5021412;28;20510;-64
2022/03/04 05:35:54;;;;;;;32.40;15.60;;;;;;;-1.05;90.54;102230.19;5022449;28;20472;-64
2022/03/04 05:38:20;;;;;;;33.28;15.95;;;;;;;-1.06;90.43;102241.41;5024140;28;20534;-64
2022/03/04 05:40:45;;;;;;;32.63;16.55;;;;;;;-1.09;90.70;102234.44;5026396;28;20132;-64
2022/03/04 05:43:11;;;;;;;33.28;16.40;;;;;;;-1.11;90.79;102234.41;5026040;28;20156;-64
2022/03/04 05:45:36;;;;;;;32.80;16.23;;;;;;;-1.12;90.67;102242.16;5026506;28;20480;-64
2022/03/04 05:48:02;;;;;;;37.15;17.38;;;;;;;-1.14;90.61;102241.25;5026164;28;20048;-64
2022/03/04 05:50:27;;;;;;;34.30;17.15;;;;;;;-1.17;90.55;102246.34;5024525;28;20064;-64
2022/03/04 05:52:52;;;;;;;35.15;17.25;;;;;;;-1.19;90.77;102248.91;5025881;28;20029;-64
2022/03/04 05:55:18;;;;;;;37.92;18.05;;;;;;;-1.19;90.62;102254.13;5024604;28;20502;-63
2022/03/04 05:57:43;;;;;;;36.92;17.25;;;;;;;-1.21;90.72;102249.72;5022909;28;20071;-64
2022/03/04 06:00:09;;;;;;;38.00;18.08;;;;;;;-1.24;90.75;102247.91;5025949;28;20391;-64
2022/03/04 06:02:35;;;;;;;34.15;16.13;;;;;;;-1.28;90.77;102244.34;5024389;28;20033;-64
2022/03/04 06:05:00;;;;;;;35.33;17.23;;;;;;;-1.29;90.68;102244.31;5026615;28;20064;-64
2022/03/04 06:07:28;;;;;;;37.28;17.10;;;;;;;-1.32;90.82;102244.25;5026614;28;20581;-64
2022/03/04 06:09:53;;;;;;;34.95;16.88;;;;;;;-1.33;90.81;102243.34;5025903;28;20033;-64
2022/03/04 06:12:19;;;;;;;34.88;15.48;;;;;;;-1.34;90.68;102243.28;5025667;28;20138;-64
2022/03/04 06:14:45;;;;;;;35.28;16.88;;;;;;;-1.35;90.81;102247.63;5023833;28;20037;-64
2022/03/04 06:17:10;;;;;;;33.95;17.25;;;;;;;-1.38;90.83;102238.03;5024724;28;20044;-64
2022/03/04 06:19:36;;;;;;;37.83;18.17;;;;;;;-1.40;90.97;102244.03;5025860;28;20045;-64
2022/03/04 06:22:02;;;;;;;35.47;17.52;;;;;;;-1.41;90.89;102250.06;5025549;28;20044;-64
2022/03/04 06:24:28;;;;;;;34.33;17.42;;;;;;;-1.42;91.06;102261.31;5025021;28;20582;-64
2022/03/04 06:26:53;;;;;;;35.60;17.27;;;;;;;-1.45;90.89;102256.00;5025606;28;20025;-64
2022/03/04 06:29:19;;;;;;;37.75;17.55;;;;;;;-1.47;90.85;102257.69;5025147;28;20139;-64
2022/03/04 06:31:44;;;;;;;36.53;17.15;;;;;;;-1.49;90.92;102259.38;5024543;28;20040;-64
2022/03/04 06:34:10;;;;;;;37.83;18.15;;;;;;;-1.51;90.94;102255.00;5025895;28;20029;-64
2022/03/04 06:36:35;;;;;;;37.42;18.00;;;;;;;-1.56;90.91;102264.41;5022181;28;20084;-64
2022/03/04 06:39:01;;;;;;;36.85;17.45;;;;;;;-1.58;91.10;102255.66;5025300;28;20590;-63
2022/03/04 06:41:26;;;;;;;41.53;18.73;;;;;;;-1.60;91.08;102257.34;5025354;28;20395;-63
2022/03/04 06:43:52;;;;;;;42.35;19.23;;;;;;;-1.61;91.04;102265.09;5023440;28;20040;-63
2022/03/04 06:46:17;;;;;;;38.85;17.90;;;;;;;-1.63;91.17;102262.47;5025253;28;21473;-64
2022/03/04 06:48:43;;;;;;;37.70;17.95;;;;;;;-1.62;91.18;102263.34;5024576;28;20036;-64
2022/03/04 06:51:08;;;;;;;39.80;19.17;;;;;;;-1.63;91.39;102259.88;5023768;28;21477;-64
2022/03/04 06:53:34;;;;;;;42.53;19.35;;;;;;;-1.64;91.18;102271.97;5024701;28;20037;-64
2022/03/04 06:55:59;;;;;;;38.97;19.25;;;;;;;-1.64;91.32;102261.56;5025631;28;20112;-64
2022/03/04 06:58:26;;;;;;;44.65;20.50;;;;;;;-1.62;91.51;102268.53;5023980;28;20055;-64
2022/03/04 07:00:51;;;;;;;43.40;21.08;;;;;;;-1.62;91.28;102264.22;5024409;28;20032;-64
2022/03/04 07:03:17;;;;;;;44.25;19.83;;;;;;;-1.60;91.29;102275.53;5024879;28;20066;-64
2022/03/04 07:05:43;;;;;;;44.30;20.40;;;;;;;-1.57;91.60;102277.34;5023361;28;20091;-63
2022/03/04 07:08:11;;;;;;;42.78;20.45;;;;;;;-1.54;91.50;102277.41;5024406;28;20043;-63
2022/03/04 07:10:39;;;;;;;43.67;19.90;;;;;;;-1.52;91.75;102276.63;5023949;28;20037;-66
2022/03/04 07:13:05;;;;;;;38.13;18.08;;;;;;;-1.47;91.95;102287.13;5023643;28;20037;-63
2022/03/04 07:15:30;;;;;;;48.40;21.05;;;;;;;-1.42;91.97;102292.47;5024041;28;20067;-63
2022/03/04 07:17:56;;;;;;;39.70;19.38;;;;;;;-1.39;92.05;102292.56;5025404;28;20116;-64
2022/03/04 07:20:21;;;;;;;41.60;19.52;;;;;;;-1.39;92.11;102298.66;5019572;28;20060;-64
2022/03/04 07:22:47;;;;;;;44.90;20.23;;;;;;;-1.37;92.21;102290.88;5023537;28;20041;-64
2022/03/04 07:25:15;;;;;;;42.58;20.42;;;;;;;-1.36;92.19;102292.66;5023519;28;20048;-64
2022/03/04 07:27:41;;;;;;;42.22;19.77;;;;;;;-1.33;92.19;102300.53;5023125;28;20037;-64
2022/03/04 07:30:10;;;;;;;45.35;20.02;;;;;;;-1.32;92.24;102299.69;5023817;28;20523;-64
2022/03/04 07:32:37;;;;;;;44.88;20.08;;;;;;;-1.31;92.30;102301.44;5023955;28;20178;-64
2022/03/04 07:35:03;;;;;;;42.97;20.58;;;;;;;-1.29;92.37;102304.97;5023289;28;20037;-63
2022/03/04 07:37:28;;;;;;;43.80;20.92;;;;;;;-1.27;92.32;102300.69;5023819;28;20098;-64
2022/03/04 07:39:54;;;;;;;45.08;21.88;;;;;;;-1.26;92.64;102301.56;5022265;28;20049;-65
2022/03/04 07:42:20;;;;;;;47.35;22.65;;;;;;;-1.24;92.17;102303.34;5017783;28;20037;-65
2022/03/04 07:44:46;;;;;;;46.80;21.70;;;;;;;-1.22;92.32;102300.81;5023474;28;20029;-65
2022/03/04 07:47:11;;;;;;;42.70;21.02;;;;;;;-1.16;92.64;102306.19;5023126;28;20074;-64
2022/03/04 07:49:37;;;;;;;47.72;22.30;;;;;;;-1.13;92.68;102307.97;5023341;28;20399;-64
2022/03/04 07:52:02;;;;;;;45.35;21.10;;;;;;;-1.14;92.61;102303.63;5023712;28;20059;-64
2022/03/04 07:54:28;;;;;;;42.53;20.80;;;;;;;-1.14;92.77;102304.50;5023061;28;21628;-64
2022/03/04 07:56:55;;;;;;;46.53;21.27;;;;;;;-1.12;92.74;102309.72;5023637;28;20044;-64
2022/03/04 07:59:21;;;;;;;44.70;22.17;;;;;;;-1.07;92.83;102317.66;5002578;28;20049;-63
2022/03/04 08:01:46;;;;;;;42.38;20.80;;;;;;;-1.07;92.44;102315.06;5011816;28;20045;-63
2022/03/04 08:04:12;;;;;;;44.92;21.65;;;;;;;-1.04;92.63;102317.75;5020878;28;20436;-63
2022/03/04 08:06:38;;;;;;;44.88;21.15;;;;;;;-1.00;92.78;102322.16;5021192;28;20115;-63
2022/03/04 08:09:04;;;;;;;44.63;22.05;;;;;;;-0.99;92.99;102324.81;5022128;28;20029;-63
2022/03/04 08:11:30;;;;;;;42.45;21.58;;;;;;;-0.96;93.04;102339.63;5021458;28;20037;-63
2022/03/04 08:13:55;;;;;;;47.35;21.88;;;;;;;-0.93;92.76;102339.69;5019493;28;20039;-63
2022/03/04 08:16:21;;;;;;;44.30;21.45;;;;;;;-0.90;93.00;102338.91;5020060;28;20089;-64
2022/03/04 08:18:47;;;;;;;42.88;20.80;;;;;;;-0.90;93.17;102342.41;5019870;28;20033;-64
2022/03/04 08:21:13;;;;;;;43.38;20.85;;;;;;;-0.90;92.92;102333.69;5021518;28;20392;-63
2022/03/04 08:23:38;;;;;;;44.28;21.20;;;;;;;-0.90;93.26;102334.59;5021318;28;20039;-63
2022/03/04 08:26:04;;;;;;;43.85;21.77;;;;;;;-0.88;92.85;102334.63;5017990;28;20021;-64
2022/03/04 08:28:32;;;;;;;48.63;22.10;;;;;;;-0.85;93.07;102339.91;5019970;28;20103;-64
2022/03/04 08:30:58;;;;;;;44.97;22.15;;;;;;;-0.84;93.00;102347.75;5017330;28;20029;-64
2022/03/04 08:33:24;;;;;;;46.67;21.98;;;;;;;-0.81;93.06;102333.97;5019015;28;20040;-64
2022/03/04 08:35:50;;;;;;;46.78;22.23;;;;;;;-0.77;93.09;102346.19;5021729;28;20071;-64
2022/03/04 08:38:17;;;;;;;46.92;22.33;;;;;;;-0.73;93.13;102353.25;5020138;28;20186;-63
2022/03/04 08:40:42;;;;;;;46.53;22.73;;;;;;;-0.66;93.31;102349.06;5020162;28;20049;-64
2022/03/04 08:43:08;;;;;;;46.63;21.85;;;;;;;-0.63;93.25;102343.06;5017939;28;20033;-64
2022/03/04 08:45:33;;;;;;;45.30;23.00;;;;;;;-0.58;93.37;102346.66;5017305;28;20044;-64
2022/03/04 08:47:59;;;;;;;47.97;22.35;;;;;;;-0.54;93.13;102348.50;5014209;28;20122;-63
2022/03/04 08:50:25;;;;;;;44.30;22.15;;;;;;;-0.50;93.33;102341.66;5015066;28;20033;-64
2022/03/04 08:52:51;;;;;;;44.10;22.90;;;;;;;-0.49;93.57;102344.28;5016875;28;20086;-66
2022/03/04 08:55:17;;;;;;;48.55;23.60;;;;;;;-0.47;93.55;102349.53;5011245;28;20060;-63
2022/03/04 08:57:43;;;;;;;42.65;22.90;;;;;;;-0.45;93.31;102348.72;5019860;28;20033;-63
2022/03/04 09:00:10;;;;;;;53.38;24.17;;;;;;;-0.42;93.46;102343.56;5020825;28;20043;-63
2022/03/04 09:02:35;;;;;;;46.22;22.77;;;;;;;-0.42;93.49;102343.56;5021030;28;20029;-63
2022/03/04 09:05:00;;;;;;;44.83;21.75;;;;;;;-0.36;93.63;102349.78;5023579;28;20032;-63
2022/03/04 09:07:26;;;;;;;41.88;22.20;;;;;;;-0.32;93.61;102349.91;5021939;28;20111;-63
2022/03/04 09:09:51;;;;;;;48.17;24.08;;;;;;;-0.26;93.60;102349.19;5021575;28;20041;-62
2022/03/04 09:12:19;;;;;;;47.38;23.30;;;;;;;-0.17;93.76;102351.09;5020691;28;20055;-63
2022/03/04 09:14:45;;;;;;;46.88;23.30;;;;;;;-0.10;93.42;102355.63;5019961;28;20041;-63
2022/03/04 09:17:10;;;;;;;46.08;21.67;;;;;;;-0.02;93.67;102354.06;5021930;28;20128;-63
2022/03/04 09:19:36;;;;;;;45.38;22.77;;;;;;;0.05;93.54;102347.28;5021210;28;20032;-63
2022/03/04 09:22:02;;;;;;;47.70;22.58;;;;;;;0.12;93.23;102359.59;5021709;28;20044;-63
2022/03/04 09:24:28;;;;;;;46.38;23.73;;;;;;;0.20;93.67;102364.09;5020927;28;20025;-63
2022/03/04 09:26:54;;;;;;;46.03;23.75;;;;;;;0.27;93.41;102360.75;5021805;28;20037;-64
2022/03/04 09:29:20;;;;;;;47.05;23.20;;;;;;;0.32;93.66;102364.34;5021301;28;20109;-63
2022/03/04 09:31:46;;;;;;;44.63;21.98;;;;;;;0.42;93.37;102364.56;5019753;28;20132;-63
2022/03/04 09:34:11;;;;;;;44.90;22.85;;;;;;;0.48;93.37;102359.50;5022006;28;20037;-63
2022/03/04 09:36:37;;;;;;;43.35;23.35;;;;;;;0.52;93.67;102345.66;5020984;28;20041;-63
2022/03/04 09:39:03;;;;;;;45.45;22.83;;;;;;;0.58;93.77;102344.91;5020700;28;20040;-63
2022/03/04 09:41:30;;;;;;;44.30;22.05;;;;;;;0.62;93.71;102347.63;5019746;28;20045;-63
2022/03/04 09:43:56;;;;;;;44.67;23.70;;;;;;;0.71;93.61;102361.69;5020701;28;20053;-63
2022/03/04 09:46:23;;;;;;;46.15;22.98;;;;;;;0.78;93.19;102351.41;5008427;28;20040;-63
2022/03/04 09:48:50;;;;;;;44.95;23.95;;;;;;;0.83;93.27;102346.28;5021329;28;20068;-63
2022/03/04 09:51:16;;;;;;;45.80;22.73;;;;;;;0.89;93.46;102348.13;5020494;28;20036;-63
2022/03/04 09:53:43;;;;;;;45.95;23.60;;;;;;;0.94;93.15;102342.13;5021594;28;20036;-64
2022/03/04 09:56:09;;;;;;;43.25;23.35;;;;;;;0.98;93.16;102347.44;5021318;28;20037;-64
2022/03/04 09:58:37;;;;;;;43.47;22.67;;;;;;;1.03;92.99;102356.22;5020864;28;20247;-63
2022/03/04 10:01:08;;;;;;;44.55;24.52;;;;;;;1.03;92.54;102359.69;5018474;28;20042;-64
2022/03/04 10:03:34;;;;;;;45.20;24.33;;;;;;;1.05;92.95;102352.75;5021527;28;20040;-63
2022/03/04 10:06:00;;;;;;;45.75;24.23;;;;;;;1.10;92.98;102357.19;5020870;28;20041;-63
2022/03/04 10:08:26;;;;;;;48.58;24.67;;;;;;;1.18;93.08;102360.81;5021133;28;20034;-64
2022/03/04 10:10:53;;;;;;;42.47;23.45;;;;;;;1.24;93.01;102357.47;5021119;28;20029;-63
2022/03/04 10:13:44;;;;;;;50.67;25.30;;;;;;;1.31;92.91;102352.34;5020702;28;20256;-64
2022/03/04 10:16:27;;;;;;;41.70;22.85;;;;;;;1.39;92.99;102344.66;5020356;28;20029;-64
2022/03/04 10:19:10;;;;;;;45.85;24.08;;;;;;;1.46;92.89;102346.53;5020370;28;20029;-64
2022/03/04 10:21:56;;;;;;;44.28;22.33;;;;;;;1.51;92.54;102346.59;5021081;28;20045;-64
2022/03/04 10:24:27;;;;;;;43.28;24.02;;;;;;;1.53;92.39;102344.03;5022041;28;20037;-64
2022/03/04 10:27:09;;;;;;;44.65;23.98;;;;;;;1.52;92.54;102345.75;5025194;28;21469;-64
2022/03/04 10:29:39;;;;;;;43.38;23.83;;;;;;;1.52;92.16;102347.50;5023387;28;20033;-64
2022/03/04 10:32:13;;;;;;;43.58;23.27;;;;;;;1.54;92.15;102348.38;5024640;28;20039;-64
2022/03/04 10:34:48;;;;;;;43.70;23.63;;;;;;;1.61;92.46;102350.25;5024238;28;20463;-64
2022/03/04 10:37:16;;;;;;;44.50;23.83;;;;;;;1.69;92.30;102350.38;5023626;28;20037;-65
2022/03/04 10:40:03;;;;;;;42.60;22.58;;;;;;;1.74;92.16;102344.38;5023709;28;20551;-65
2022/03/04 10:42:45;;;;;;;38.28;22.00;;;;;;;1.78;91.99;102339.19;5021977;28;20111;-65
2022/03/04 10:45:13;;;;;;;38.63;21.42;;;;;;;1.76;91.67;102340.03;5024232;28;20151;-64
2022/03/04 10:47:59;;;;;;;39.88;21.05;;;;;;;1.75;92.02;102346.13;5024468;28;20041;-64
2022/03/04 10:50:25;;;;;;;39.30;20.80;;;;;;;1.76;91.89;102337.41;5023537;28;20045;-64
2022/03/04 10:52:57;;;;;;;39.70;21.33;;;;;;;1.77;91.85;102340.91;5023922;28;20030;-64
2022/03/04 10:55:29;;;;;;;40.70;22.08;;;;;;;1.79;91.68;102348.78;5020946;28;20053;-64
2022/03/04 10:57:55;;;;;;;42.78;22.52;;;;;;;1.78;91.89;102332.22;5023208;28;20566;-65
2022/03/04 11:00:29;;;;;;;40.20;20.65;;;;;;;1.79;91.77;102336.59;5020648;28;20039;-65
2022/03/04 11:02:55;;;;;;;40.00;21.48;;;;;;;1.82;91.47;102335.75;5021288;28;20079;-66
2022/03/04 11:05:22;;;;;;;38.05;20.40;;;;;;;1.83;91.69;102335.78;5022981;28;20049;-65
2022/03/04 11:07:48;;;;;;;35.22;19.90;;;;;;;1.86;91.74;102324.53;5023143;28;20064;-65
2022/03/04 11:10:14;;;;;;;32.92;18.90;;;;;;;1.90;91.50;102324.56;5022097;28;20034;-65
2022/03/04 11:12:42;;;;;;;35.42;18.85;;;;;;;1.94;91.39;102324.59;5023222;28;20087;-65